createdAt,value
2023-04-20T00:00:32.679Z,7.22
2023-04-20T00:03:00.315Z,7.82
2023-04-20T00:05:27.637Z,8.80
2023-04-20T00:07:54.782Z,7.05
2023-04-20T00:10:21.558Z,7.53
2023-04-20T00:12:48.297Z,8.80
2023-04-20T00:15:15.212Z,8.32
2023-04-20T00:17:42.028Z,7.72
2023-04-20T00:20:10.009Z,12.10
2023-04-20T00:22:37.137Z,8.18
2023-04-20T00:25:04.036Z,9.95
2023-04-20T00:27:31.036Z,8.73
2023-04-20T00:29:57.806Z,7.53
2023-04-20T00:32:24.715Z,7.20
2023-04-20T00:34:51.482Z,10.10
2023-04-20T00:37:18.173Z,8.43
2023-04-20T00:39:44.938Z,7.60
2023-04-20T00:42:12.026Z,7.65
2023-04-20T00:44:38.755Z,7.97
2023-04-20T00:47:05.856Z,6.53
2023-04-20T00:49:32.751Z,6.78
2023-04-20T00:52:00.869Z,7.60
2023-04-20T00:54:28.826Z,7.15
2023-04-20T00:56:58.034Z,7.05
2023-04-20T00:59:25.520Z,7.43
2023-04-20T01:01:52.354Z,10.13
2023-04-20T01:04:19.423Z,7.45
2023-04-20T01:06:46.363Z,9.20
2023-04-20T01:09:13.253Z,7.97
2023-04-20T01:11:40.402Z,8.15
2023-04-20T01:14:07.471Z,7.18
2023-04-20T01:16:36.766Z,6.68
2023-04-20T01:19:03.885Z,7.47
2023-04-20T01:21:31.121Z,7.38
2023-04-20T01:23:58.401Z,8.23
2023-04-20T01:26:25.885Z,8.43
2023-04-20T01:28:52.866Z,8.48
2023-04-20T01:31:20.068Z,9.38
2023-04-20T01:33:46.933Z,9.77
2023-04-20T01:36:13.911Z,12.40
2023-04-20T01:38:41.188Z,8.32
2023-04-20T01:41:14.830Z,9.65
2023-04-20T01:43:41.654Z,8.18
2023-04-20T01:46:08.407Z,8.35
2023-04-20T01:48:35.416Z,7.15
2023-04-20T01:51:02.257Z,10.88
2023-04-20T01:53:29.347Z,9.15
2023-04-20T01:55:56.115Z,7.82
2023-04-20T01:58:23.124Z,8.05
2023-04-20T02:00:49.931Z,8.55
2023-04-20T02:03:17.301Z,6.85
2023-04-20T02:05:44.679Z,14.68
2023-04-20T02:08:11.503Z,7.43
2023-04-20T02:10:38.474Z,7.80
2023-04-20T02:13:05.226Z,8.00
2023-04-20T02:15:32.028Z,9.98
2023-04-20T02:18:00.784Z,8.50
2023-04-20T02:20:27.904Z,8.32
2023-04-20T02:22:54.744Z,6.47
2023-04-20T02:25:21.893Z,7.68
2023-04-20T02:27:49.448Z,7.60
2023-04-20T02:30:16.466Z,9.02
2023-04-20T02:32:43.546Z,8.07
2023-04-20T02:35:10.539Z,7.78
2023-04-20T02:37:37.252Z,8.95
2023-04-20T02:40:04.904Z,8.43
2023-04-20T02:42:31.650Z,9.80
2023-04-20T02:44:58.348Z,8.23
2023-04-20T02:47:25.183Z,9.00
2023-04-20T02:49:51.897Z,8.68
2023-04-20T02:52:18.822Z,9.23
2023-04-20T02:54:46.236Z,7.45
2023-04-20T02:57:13.161Z,8.63
2023-04-20T02:59:40.573Z,9.57
2023-04-20T03:02:07.368Z,8.57
2023-04-20T03:04:34.465Z,9.07
2023-04-20T03:07:01.473Z,13.63
2023-04-20T03:09:28.281Z,8.90
2023-04-20T03:11:55.011Z,8.77
2023-04-20T03:14:21.744Z,8.57
2023-04-20T03:16:48.574Z,11.55
2023-04-20T03:19:16.095Z,6.65
2023-04-20T03:21:44.660Z,10.40
2023-04-20T03:24:11.377Z,13.05
2023-04-20T03:26:38.153Z,8.13
2023-04-20T03:29:04.951Z,8.63
2023-04-20T03:31:33.080Z,7.60
2023-04-20T03:34:00.218Z,9.88
2023-04-20T03:36:31.883Z,8.18
2023-04-20T03:38:58.633Z,11.50
2023-04-20T03:41:25.492Z,9.38
2023-04-20T03:43:52.237Z,16.13
2023-04-20T03:46:20.413Z,13.05
2023-04-20T03:48:48.210Z,10.68
2023-04-20T03:51:14.997Z,13.15
2023-04-20T03:53:42.162Z,15.45
2023-04-20T03:56:09.626Z,16.95
2023-04-20T03:58:36.419Z,8.85
2023-04-20T04:01:07.129Z,11.05
2023-04-20T04:03:34.994Z,13.70
2023-04-20T04:06:02.485Z,13.48
2023-04-20T04:08:29.343Z,16.27
2023-04-20T04:10:56.102Z,18.70
2023-04-20T04:13:22.825Z,18.27
2023-04-20T04:15:50.383Z,16.00
2023-04-20T04:18:17.577Z,12.10
2023-04-20T04:20:44.336Z,11.00
2023-04-20T04:23:11.651Z,13.50
2023-04-20T04:25:40.264Z,57.58
2023-04-20T04:28:07.293Z,33.50
2023-04-20T04:30:35.011Z,57.85
2023-04-20T04:33:04.636Z,35.65
2023-04-20T04:35:31.792Z,13.13
2023-04-20T04:37:59.160Z,10.20
2023-04-20T04:40:26.095Z,9.70
2023-04-20T04:42:52.824Z,9.10
2023-04-20T04:45:19.776Z,8.27
2023-04-20T04:47:46.575Z,12.45
2023-04-20T04:50:13.480Z,34.03
2023-04-20T04:52:40.271Z,15.73
2023-04-20T04:55:09.195Z,20.10
2023-04-20T04:57:38.511Z,10.90
2023-04-20T05:00:11.692Z,18.85
2023-04-20T05:02:39.871Z,12.95
2023-04-20T05:05:10.077Z,17.63
2023-04-20T05:07:38.230Z,27.88
2023-04-20T05:10:07.207Z,10.98
2023-04-20T05:12:34.285Z,8.70
2023-04-20T05:15:01.868Z,9.05
2023-04-20T05:17:29.884Z,37.85
2023-04-20T05:19:56.767Z,10.15
2023-04-20T05:22:24.523Z,11.48
2023-04-20T05:24:51.254Z,11.65
2023-04-20T05:27:17.993Z,12.68
2023-04-20T05:29:44.773Z,12.93
2023-04-20T05:32:12.140Z,11.20
2023-04-20T05:34:38.874Z,11.00
2023-04-20T05:37:06.125Z,12.05
2023-04-20T05:39:33.721Z,16.70
2023-04-20T05:42:00.483Z,20.65
2023-04-20T05:44:28.108Z,16.90
2023-04-20T05:46:54.823Z,14.75
2023-04-20T05:49:22.012Z,21.95
2023-04-20T05:51:48.797Z,34.90
2023-04-20T05:54:15.629Z,33.88
2023-04-20T05:56:43.197Z,22.23
2023-04-20T05:59:10.551Z,22.90
2023-04-20T06:01:37.274Z,21.17
2023-04-20T06:04:04.276Z,24.50
2023-04-20T06:06:31.505Z,21.00
2023-04-20T06:08:58.323Z,17.83
2023-04-20T06:11:25.249Z,18.67
2023-04-20T06:13:52.032Z,19.92
2023-04-20T06:16:19.235Z,19.95
2023-04-20T06:18:46.134Z,20.67
2023-04-20T06:21:13.064Z,18.42
2023-04-20T06:23:40.807Z,19.75
2023-04-20T06:26:08.920Z,18.60
2023-04-20T06:28:39.089Z,19.38
2023-04-20T06:31:06.319Z,20.90
2023-04-20T06:33:33.296Z,20.02
2023-04-20T06:36:00.241Z,19.83
2023-04-20T06:38:26.991Z,15.38
2023-04-20T06:40:53.733Z,19.17
2023-04-20T06:43:20.854Z,17.85
2023-04-20T06:45:47.563Z,15.88
2023-04-20T06:48:23.949Z,14.63
2023-04-20T06:50:57.689Z,14.13
2023-04-20T06:53:24.995Z,15.65
2023-04-20T06:55:55.516Z,14.45
2023-04-20T06:58:22.265Z,13.35
2023-04-20T07:00:48.971Z,14.45
2023-04-20T07:03:16.352Z,18.35
2023-04-20T07:05:43.264Z,17.02
2023-04-20T07:08:10.225Z,15.75
2023-04-20T07:10:36.966Z,17.90
2023-04-20T07:13:03.700Z,18.30
2023-04-20T07:15:30.477Z,15.52
2023-04-20T07:17:57.231Z,14.00
2023-04-20T07:20:24.180Z,14.00
2023-04-20T07:22:51.119Z,16.80
2023-04-20T07:25:18.093Z,16.92
2023-04-20T07:27:44.873Z,17.00
2023-04-20T07:30:12.189Z,17.15
2023-04-20T07:32:41.243Z,17.50
2023-04-20T07:35:09.134Z,15.63
2023-04-20T07:37:36.187Z,15.70
2023-04-20T07:40:06.475Z,15.15
2023-04-20T07:42:34.789Z,15.90
2023-04-20T07:45:02.009Z,14.27
2023-04-20T07:47:29.961Z,14.80
2023-04-20T07:49:57.583Z,15.50
2023-04-20T07:52:25.933Z,13.98
2023-04-20T07:54:59.660Z,15.85
2023-04-20T07:57:27.187Z,15.48
2023-04-20T07:59:53.991Z,12.88
2023-04-20T08:02:20.961Z,14.45
2023-04-20T08:04:49.766Z,16.92
2023-04-20T08:07:16.813Z,16.27
2023-04-20T08:09:43.602Z,15.85
2023-04-20T08:12:10.376Z,18.25
2023-04-20T08:14:38.222Z,13.60
2023-04-20T08:17:05.024Z,13.75
2023-04-20T08:19:31.775Z,11.95
2023-04-20T08:21:59.064Z,13.43
2023-04-20T08:24:27.080Z,12.48
2023-04-20T08:26:53.850Z,12.60
2023-04-20T08:29:20.893Z,12.88
2023-04-20T08:31:50.656Z,10.38
2023-04-20T08:34:19.049Z,13.02
2023-04-20T08:36:46.889Z,11.73
2023-04-20T08:39:18.473Z,12.57
2023-04-20T08:41:46.742Z,14.98
2023-04-20T08:44:13.670Z,12.45
2023-04-20T08:46:46.358Z,13.02
2023-04-20T08:49:19.107Z,13.43
2023-04-20T08:51:49.089Z,12.50
2023-04-20T08:54:19.127Z,12.18
2023-04-20T08:56:47.713Z,12.23
2023-04-20T08:59:18.386Z,11.88
2023-04-20T09:01:45.449Z,13.43
2023-04-20T09:04:21.696Z,14.02
2023-04-20T09:06:51.501Z,12.55
2023-04-20T09:09:23.362Z,12.05
2023-04-20T09:12:07.907Z,11.70
2023-04-20T09:14:45.723Z,8.32
2023-04-20T09:17:14.614Z,9.88
2023-04-20T09:19:48.355Z,9.93
2023-04-20T09:22:15.065Z,9.82
2023-04-20T09:24:42.727Z,9.65
2023-04-20T09:27:18.237Z,8.52
2023-04-20T09:29:57.164Z,8.25
2023-04-20T09:32:24.713Z,8.00
2023-04-20T09:34:51.568Z,7.70
2023-04-20T09:37:18.741Z,7.22
2023-04-20T09:39:46.644Z,7.40
2023-04-20T09:42:16.646Z,7.70
2023-04-20T09:44:43.826Z,8.65
2023-04-20T09:47:20.738Z,7.40
2023-04-20T09:49:47.772Z,7.65
2023-04-20T09:52:21.109Z,6.88
2023-04-20T09:54:48.528Z,6.88
2023-04-20T09:57:15.385Z,6.95
2023-04-20T09:59:47.378Z,7.20
2023-04-20T10:02:14.859Z,7.28
2023-04-20T10:04:55.076Z,7.13
2023-04-20T10:07:26.685Z,6.82
2023-04-20T10:10:23.903Z,6.50
2023-04-20T10:12:53.037Z,6.85
2023-04-20T10:15:21.890Z,6.97
2023-04-20T10:17:48.993Z,7.63
2023-04-20T10:20:33.789Z,5.97
2023-04-20T10:23:10.288Z,5.80
2023-04-20T10:25:37.626Z,6.28
2023-04-20T10:28:09.421Z,6.88
2023-04-20T10:30:37.665Z,6.15
2023-04-20T10:33:06.529Z,6.47
2023-04-20T10:35:49.439Z,8.70
2023-04-20T10:38:33.061Z,6.35
2023-04-20T10:41:09.917Z,6.03
2023-04-20T10:43:43.169Z,6.95
2023-04-20T10:46:21.736Z,6.07
2023-04-20T10:49:01.606Z,6.80
2023-04-20T10:51:28.640Z,6.60
2023-04-20T10:54:05.896Z,6.00
2023-04-20T10:56:46.986Z,6.32
2023-04-20T10:59:19.568Z,6.43
2023-04-20T11:01:48.132Z,10.93
2023-04-20T11:04:18.355Z,9.68
2023-04-20T11:06:48.178Z,10.35
2023-04-20T11:09:23.535Z,12.00
2023-04-20T11:12:04.094Z,14.15
2023-04-20T11:14:32.614Z,11.35
2023-04-20T11:16:59.910Z,10.52
2023-04-20T11:19:35.749Z,9.23
2023-04-20T11:22:05.183Z,8.82
2023-04-20T11:24:37.452Z,8.13
2023-04-20T11:27:04.896Z,10.10
2023-04-20T11:29:37.932Z,7.40
2023-04-20T11:32:06.982Z,7.88
2023-04-20T11:34:35.821Z,10.20
2023-04-20T11:37:07.732Z,8.02
2023-04-20T11:39:34.992Z,6.85
2023-04-20T11:42:02.448Z,7.65
2023-04-20T11:44:29.468Z,7.85
2023-04-20T11:46:59.746Z,6.82
2023-04-20T11:49:28.888Z,7.10
2023-04-20T11:51:55.885Z,7.82
2023-04-20T11:54:23.900Z,6.63
2023-04-20T11:56:51.028Z,8.07
2023-04-20T11:59:20.140Z,7.97
2023-04-20T12:01:50.275Z,7.15
2023-04-20T12:04:17.729Z,7.05
2023-04-20T12:06:45.148Z,6.90
2023-04-20T12:09:13.393Z,7.80
2023-04-20T12:11:40.336Z,7.45
2023-04-20T12:14:07.957Z,6.68
2023-04-20T12:16:34.826Z,7.50
2023-04-20T12:19:02.152Z,7.35
2023-04-20T12:21:29.344Z,9.13
2023-04-20T12:23:57.750Z,10.18
2023-04-20T12:26:34.851Z,8.52
2023-04-20T12:29:04.459Z,7.35
2023-04-20T12:31:31.956Z,6.80
2023-04-20T12:33:58.853Z,10.13
2023-04-20T12:36:25.806Z,8.05
2023-04-20T12:38:55.696Z,7.85
2023-04-20T12:41:24.554Z,6.68
2023-04-20T12:43:51.849Z,8.45
2023-04-20T12:46:18.949Z,6.32
2023-04-20T12:48:46.078Z,7.32
2023-04-20T12:51:15.164Z,6.10
2023-04-20T12:53:42.658Z,10.55
2023-04-20T12:56:09.431Z,6.35
2023-04-20T12:58:36.149Z,5.85
2023-04-20T13:01:03.554Z,5.80
2023-04-20T13:03:31.193Z,6.68
2023-04-20T13:05:59.011Z,5.97
2023-04-20T13:08:26.039Z,5.63
2023-04-20T13:10:52.802Z,7.13
2023-04-20T13:13:19.597Z,6.10
2023-04-20T13:15:46.364Z,6.40
2023-04-20T13:18:15.353Z,6.25
2023-04-20T13:20:42.075Z,15.60
2023-04-20T13:23:08.826Z,7.93
2023-04-20T13:25:38.223Z,7.53
2023-04-20T13:28:05.616Z,6.03
2023-04-20T13:30:32.746Z,7.50
2023-04-20T13:32:59.501Z,7.55
2023-04-20T13:35:26.518Z,8.35
2023-04-20T13:37:53.270Z,8.10
2023-04-20T13:40:20.299Z,7.38
2023-04-20T13:42:47.522Z,8.70
2023-04-20T13:45:14.308Z,8.00
2023-04-20T13:47:41.280Z,9.82
2023-04-20T13:50:09.029Z,9.38
2023-04-20T13:52:36.065Z,11.55
2023-04-20T13:55:02.899Z,8.80
2023-04-20T13:57:31.613Z,8.65
2023-04-20T13:59:59.125Z,8.68
2023-04-20T14:02:27.249Z,9.23
2023-04-20T14:04:54.090Z,9.85
2023-04-20T14:07:20.832Z,8.27
2023-04-20T14:09:47.648Z,10.35
2023-04-20T14:12:14.519Z,8.90
2023-04-20T14:14:41.267Z,9.38
2023-04-20T14:17:08.454Z,9.13
2023-04-20T14:19:35.340Z,10.18
2023-04-20T14:22:02.050Z,10.82
2023-04-20T14:24:29.238Z,10.75
2023-04-20T14:26:56.708Z,11.15
2023-04-20T14:29:23.981Z,11.85
2023-04-20T14:31:51.965Z,11.38
2023-04-20T14:34:19.002Z,11.73
2023-04-20T14:36:46.246Z,10.98
2023-04-20T14:39:14.537Z,13.43
2023-04-20T14:41:41.612Z,13.00
2023-04-20T14:44:08.413Z,14.60
2023-04-20T14:46:35.734Z,9.75
2023-04-20T14:49:02.991Z,11.75
2023-04-20T14:51:29.887Z,13.32
2023-04-20T14:53:56.835Z,11.82
2023-04-20T14:56:23.961Z,11.88
2023-04-20T14:58:50.898Z,13.82
2023-04-20T15:01:19.971Z,12.30
2023-04-20T15:03:46.958Z,9.88
2023-04-20T15:06:13.890Z,11.80
2023-04-20T15:08:40.932Z,12.13
2023-04-20T15:11:08.253Z,12.13
2023-04-20T15:13:35.269Z,11.77
2023-04-20T15:16:02.070Z,10.48
2023-04-20T15:18:29.022Z,11.18
2023-04-20T15:20:55.853Z,11.00
2023-04-20T15:23:23.012Z,10.25
2023-04-20T15:25:49.928Z,12.05
2023-04-20T15:28:16.780Z,11.10
2023-04-20T15:30:44.326Z,10.57
2023-04-20T15:33:11.232Z,11.48
2023-04-20T15:35:38.705Z,10.23
2023-04-20T15:38:05.516Z,12.77
2023-04-20T15:40:32.703Z,10.98
2023-04-20T15:42:59.585Z,10.35
2023-04-20T15:45:26.365Z,10.45
2023-04-20T15:47:53.270Z,10.00
2023-04-20T15:50:20.617Z,11.65
2023-04-20T15:52:49.741Z,11.07
2023-04-20T15:55:17.044Z,11.27
2023-04-20T15:57:44.723Z,10.48
2023-04-20T16:00:12.450Z,9.98
2023-04-20T16:02:40.155Z,9.57
2023-04-20T16:05:07.892Z,9.68
2023-04-20T16:07:35.194Z,10.15
2023-04-20T16:10:02.979Z,9.55
2023-04-20T16:12:30.386Z,11.75
2023-04-20T16:14:57.353Z,11.63
2023-04-20T16:17:24.309Z,10.35
2023-04-20T16:19:51.104Z,10.32
2023-04-20T16:22:18.117Z,11.75
2023-04-20T16:24:45.029Z,11.50
2023-04-20T16:27:12.085Z,10.23
2023-04-20T16:29:38.808Z,11.15
2023-04-20T16:32:06.200Z,11.13
2023-04-20T16:34:33.293Z,11.75
2023-04-20T16:36:59.991Z,12.13
2023-04-20T16:39:27.196Z,9.95
2023-04-20T16:41:54.203Z,10.70
2023-04-20T16:44:21.500Z,11.93
2023-04-20T16:46:51.052Z,10.10
2023-04-20T16:49:18.484Z,11.23
2023-04-20T16:51:45.242Z,14.68
2023-04-20T16:54:12.717Z,10.90
2023-04-20T16:56:39.895Z,10.65
2023-04-20T16:59:06.792Z,13.43
2023-04-20T17:01:33.597Z,11.70
2023-04-20T17:04:00.765Z,13.32
2023-04-20T17:06:28.156Z,12.57
2023-04-20T17:09:04.976Z,11.40
2023-04-20T17:11:35.757Z,12.25
2023-04-20T17:14:03.339Z,11.60
2023-04-20T17:16:30.327Z,12.20
2023-04-20T17:18:57.395Z,14.07
2023-04-20T17:21:25.664Z,15.05
2023-04-20T17:23:52.381Z,13.77
2023-04-20T17:26:19.222Z,14.43
2023-04-20T17:28:46.405Z,14.73
2023-04-20T17:31:13.257Z,14.20
2023-04-20T17:33:40.024Z,13.35
2023-04-20T17:36:06.846Z,14.02
2023-04-20T17:38:36.508Z,13.90
2023-04-20T17:41:04.833Z,14.73
2023-04-20T17:43:31.660Z,15.32
2023-04-20T17:45:58.692Z,14.38
2023-04-20T17:48:25.602Z,12.57
2023-04-20T17:50:52.491Z,14.70
2023-04-20T17:53:19.622Z,14.18
2023-04-20T17:55:46.662Z,17.55
2023-04-20T17:58:13.372Z,17.00
2023-04-20T18:00:40.594Z,15.48
2023-04-20T18:03:07.813Z,14.80
2023-04-20T18:05:34.681Z,17.98
2023-04-20T18:08:01.643Z,16.65
2023-04-20T18:10:28.611Z,16.33
2023-04-20T18:12:55.453Z,16.90
2023-04-20T18:15:22.587Z,17.35
2023-04-20T18:17:49.504Z,16.40
2023-04-20T18:20:16.335Z,17.15
2023-04-20T18:22:43.109Z,17.77
2023-04-20T18:25:10.009Z,16.55
2023-04-20T18:27:37.544Z,16.98
2023-04-20T18:30:04.823Z,14.57
2023-04-20T18:32:32.958Z,15.95
2023-04-20T18:35:00.244Z,16.00
2023-04-20T18:37:27.043Z,16.42
2023-04-20T18:39:53.800Z,17.70
2023-04-20T18:42:21.285Z,17.50
2023-04-20T18:44:50.933Z,15.57
2023-04-20T18:47:18.909Z,16.67
2023-04-20T18:49:45.635Z,16.90
2023-04-20T18:52:13.978Z,18.13
2023-04-20T18:54:40.788Z,15.75
2023-04-20T18:57:07.882Z,15.98
2023-04-20T18:59:34.658Z,18.38
2023-04-20T19:02:01.488Z,17.70
2023-04-20T19:04:29.624Z,16.60
2023-04-20T19:06:56.397Z,18.08
2023-04-20T19:09:23.153Z,18.17
2023-04-20T19:11:50.798Z,19.98
2023-04-20T19:14:17.773Z,18.58
2023-04-20T19:16:44.863Z,18.48
2023-04-20T19:19:11.886Z,18.52
2023-04-20T19:21:38.633Z,20.00
2023-04-20T19:24:05.724Z,16.55
2023-04-20T19:26:32.500Z,19.58
2023-04-20T19:28:59.730Z,18.65
2023-04-20T19:31:28.434Z,18.50
2023-04-20T19:33:57.111Z,16.48
2023-04-20T19:36:24.068Z,15.55
2023-04-20T19:38:50.827Z,14.98
2023-04-20T19:41:17.781Z,16.27
2023-04-20T19:43:44.520Z,17.08
2023-04-20T19:46:11.681Z,17.02
2023-04-20T19:48:38.502Z,16.88
2023-04-20T19:51:06.603Z,14.90
2023-04-20T19:53:33.942Z,15.38
2023-04-20T19:56:00.777Z,14.55
2023-04-20T19:58:27.648Z,14.38
2023-04-20T20:00:54.560Z,15.68
2023-04-20T20:03:21.679Z,16.25
2023-04-20T20:05:48.825Z,17.20
2023-04-20T20:08:16.518Z,16.90
2023-04-20T20:10:43.913Z,16.70
2023-04-20T20:13:11.015Z,16.70
2023-04-20T20:15:37.813Z,16.73
2023-04-20T20:18:05.117Z,18.25
2023-04-20T20:20:32.296Z,16.40
2023-04-20T20:23:02.239Z,16.40
2023-04-20T20:25:29.853Z,16.20
2023-04-20T20:27:56.585Z,17.35
2023-04-20T20:30:23.386Z,20.45
2023-04-20T20:32:51.140Z,17.73
2023-04-20T20:35:17.905Z,17.17
2023-04-20T20:37:45.163Z,16.83
2023-04-20T20:40:14.763Z,15.40
2023-04-20T20:42:45.135Z,16.38
2023-04-20T20:45:12.940Z,16.83
2023-04-20T20:47:44.259Z,16.13
2023-04-20T20:50:12.917Z,16.90
2023-04-20T20:52:39.757Z,15.45
2023-04-20T20:55:09.102Z,15.75
2023-04-20T20:57:36.562Z,17.92
2023-04-20T21:00:08.345Z,18.73
2023-04-20T21:02:35.596Z,15.57
2023-04-20T21:05:03.220Z,16.98
2023-04-20T21:07:33.520Z,20.98
2023-04-20T21:10:00.776Z,17.88
2023-04-20T21:12:28.190Z,19.55
2023-04-20T21:14:55.378Z,17.45
2023-04-20T21:17:22.324Z,16.08
2023-04-20T21:19:49.049Z,21.33
2023-04-20T21:22:15.881Z,18.40
2023-04-20T21:24:42.617Z,19.50
2023-04-20T21:27:09.874Z,17.42
2023-04-20T21:29:36.650Z,16.50
2023-04-20T21:32:03.608Z,15.13
2023-04-20T21:34:30.632Z,15.38
2023-04-20T21:37:03.575Z,15.90
2023-04-20T21:39:31.938Z,18.65
2023-04-20T21:41:59.669Z,18.95
2023-04-20T21:44:27.447Z,14.35
2023-04-20T21:46:54.274Z,15.25
2023-04-20T21:49:21.346Z,18.05
2023-04-20T21:51:48.266Z,20.50
2023-04-20T21:54:15.471Z,16.30
2023-04-20T21:56:42.597Z,19.45
2023-04-20T21:59:09.379Z,21.73
2023-04-20T22:01:36.123Z,19.40
2023-04-20T22:04:04.051Z,19.88
2023-04-20T22:06:34.401Z,20.05
2023-04-20T22:09:01.771Z,22.02
2023-04-20T22:11:29.509Z,20.48
2023-04-20T22:13:57.283Z,20.73
2023-04-20T22:16:24.316Z,24.67
2023-04-20T22:18:51.246Z,27.50
2023-04-20T22:21:18.007Z,32.53
2023-04-20T22:23:44.699Z,32.67
2023-04-20T22:26:11.430Z,21.00
2023-04-20T22:28:38.118Z,20.38
2023-04-20T22:31:04.905Z,20.75
2023-04-20T22:33:31.633Z,19.67
2023-04-20T22:35:58.365Z,21.98
2023-04-20T22:38:25.259Z,20.60
2023-04-20T22:40:52.037Z,22.55
2023-04-20T22:43:20.095Z,24.92
2023-04-20T22:45:47.055Z,23.95
2023-04-20T22:48:13.760Z,22.00
2023-04-20T22:50:40.593Z,22.27
2023-04-20T22:53:07.632Z,20.55
2023-04-20T22:55:34.376Z,22.38
2023-04-20T22:58:01.113Z,22.40
2023-04-20T23:00:28.084Z,25.63
2023-04-20T23:02:55.060Z,24.58
2023-04-20T23:05:22.867Z,24.48
2023-04-20T23:07:49.708Z,19.77
2023-04-20T23:10:16.547Z,25.92
2023-04-20T23:12:44.548Z,29.92
2023-04-20T23:15:11.938Z,22.25
2023-04-20T23:17:39.702Z,28.33
2023-04-20T23:20:13.794Z,27.17
2023-04-20T23:22:40.945Z,23.92
2023-04-20T23:25:09.552Z,24.90
2023-04-20T23:27:36.657Z,23.45
2023-04-20T23:30:03.537Z,24.50
2023-04-20T23:32:30.655Z,19.95
2023-04-20T23:34:57.506Z,21.10
2023-04-20T23:37:24.342Z,19.02
2023-04-20T23:39:51.209Z,20.25
2023-04-20T23:42:17.961Z,21.40
2023-04-20T23:44:44.697Z,20.77
2023-04-20T23:47:11.487Z,21.00
2023-04-20T23:49:38.705Z,20.15
2023-04-20T23:52:05.868Z,25.02
2023-04-20T23:54:33.349Z,23.90
2023-04-20T23:57:00.502Z,20.88
2023-04-20T23:59:27.217Z,20.77
